メインページ
METAR-TAF:

METAR-TAF

空港 :

バーレーン国際空港

バーレーン, バーレーン

緯度: 26-16N, 経度: 050-39E, 海抜: 2m

現時点の気象観測

当レポートは25分前の14:00(UTC)に作成
北/北西の風 13kt
気温 36°C
湿度 47%
気圧 995 hPa
視程10km以上
1,500メートル以下は雲なし、積乱雲なし

METAR: OBBI 201400Z 33013KT CAVOK 36/23 Q0995 NOSIG

時間: 17:25 (14:25 UTC)

予報

当レポートは3時間25分前の11:00(UTC)に作成
予報は20日の 12時(UTC)から 21日の 18時(UTC)まで有効
北/北西の風 12kt
視程: 8000m
確率 30% :
20日の 20時(UTC)から 21日の 05時(UTC)まで一時的に
視程: 5000m
広範な塵
21日の 03時(UTC)から 21日の 05時(UTC)まで徐々に
北/北西の風 17kt、最大27ktの突風を伴う
21日の 15時(UTC)から 21日の 17時(UTC)まで徐々に
西/北西の風 10kt

TAF: OBBI 201100Z 2012/2118 33012KT 8000 NSC PROB30 TEMPO 2020/2105 5000 DU BECMG 2103/2105 33017G27KT BECMG 2115/2117 30010KT

4,000以上の空港の気象観測と天気予報(METAR報とTAF報)

利用可能な観測所は地図上に黄色い丸と赤い丸で示す。

丸の上にカーソルを重ねると観測所名を参照できる。

次にクリックすると気象観測と天気予報を参照できる。

マップの切り替え:黒色「×」印の緑ボタンをクリックして拡大、「-」印の緑ボタンをクリックして縮小、緑色の三角印をクリックして隣りの地図に切り替え


METAR-TAF: